sensor_id;sensor_type;location;lat;lon;timestamp;P1;durP1;ratioP1;P2;durP2;ratioP2
43552;SDS011;29153;42.696;23.218;2024-01-25T00:00:42;25.10;;;11.95;;
43552;SDS011;29153;42.696;23.218;2024-01-25T00:03:10;28.35;;;12.93;;
43552;SDS011;29153;42.696;23.218;2024-01-25T00:05:38;25.97;;;11.90;;
43552;SDS011;29153;42.696;23.218;2024-01-25T00:08:05;29.02;;;13.05;;
43552;SDS011;29153;42.696;23.218;2024-01-25T00:10:33;40.28;;;20.17;;
43552;SDS011;29153;42.696;23.218;2024-01-25T00:13:00;53.78;;;23.32;;
43552;SDS011;29153;42.696;23.218;2024-01-25T00:15:28;149.70;;;50.15;;
43552;SDS011;29153;42.696;23.218;2024-01-25T00:17:56;68.33;;;27.50;;
43552;SDS011;29153;42.696;23.218;2024-01-25T00:20:23;30.00;;;12.98;;
43552;SDS011;29153;42.696;23.218;2024-01-25T00:22:51;37.78;;;17.20;;
43552;SDS011;29153;42.696;23.218;2024-01-25T00:25:18;51.68;;;22.75;;
43552;SDS011;29153;42.696;23.218;2024-01-25T00:27:46;33.53;;;16.00;;
43552;SDS011;29153;42.696;23.218;2024-01-25T00:30:14;34.70;;;15.23;;
43552;SDS011;29153;42.696;23.218;2024-01-25T00:32:41;30.82;;;13.45;;
43552;SDS011;29153;42.696;23.218;2024-01-25T00:35:09;18.92;;;8.98;;
43552;SDS011;29153;42.696;23.218;2024-01-25T00:37:42;14.25;;;7.65;;
43552;SDS011;29153;42.696;23.218;2024-01-25T00:40:10;14.95;;;6.55;;
43552;SDS011;29153;42.696;23.218;2024-01-25T00:42:43;28.00;;;11.15;;
43552;SDS011;29153;42.696;23.218;2024-01-25T00:45:14;27.55;;;11.33;;
43552;SDS011;29153;42.696;23.218;2024-01-25T00:47:41;34.18;;;12.75;;
43552;SDS011;29153;42.696;23.218;2024-01-25T00:50:09;25.88;;;10.65;;
43552;SDS011;29153;42.696;23.218;2024-01-25T00:52:38;33.10;;;12.30;;
43552;SDS011;29153;42.696;23.218;2024-01-25T00:55:06;38.92;;;14.40;;
43552;SDS011;29153;42.696;23.218;2024-01-25T00:57:34;29.87;;;11.10;;
43552;SDS011;29153;42.696;23.218;2024-01-25T01:00:02;25.62;;;9.45;;
43552;SDS011;29153;42.696;23.218;2024-01-25T01:02:30;21.70;;;7.90;;
43552;SDS011;29153;42.696;23.218;2024-01-25T01:05:01;17.50;;;7.83;;
43552;SDS011;29153;42.696;23.218;2024-01-25T01:07:29;15.23;;;6.72;;
43552;SDS011;29153;42.696;23.218;2024-01-25T01:09:56;16.77;;;6.97;;
43552;SDS011;29153;42.696;23.218;2024-01-25T01:12:24;35.13;;;10.82;;
43552;SDS011;29153;42.696;23.218;2024-01-25T01:14:52;42.58;;;14.45;;
43552;SDS011;29153;42.696;23.218;2024-01-25T01:17:19;29.02;;;9.95;;
43552;SDS011;29153;42.696;23.218;2024-01-25T01:19:47;20.92;;;7.35;;
43552;SDS011;29153;42.696;23.218;2024-01-25T01:22:15;12.00;;;5.83;;
43552;SDS011;29153;42.696;23.218;2024-01-25T01:24:43;13.83;;;5.53;;
43552;SDS011;29153;42.696;23.218;2024-01-25T01:27:10;14.10;;;5.62;;
43552;SDS011;29153;42.696;23.218;2024-01-25T01:29:38;7.00;;;3.33;;
43552;SDS011;29153;42.696;23.218;2024-01-25T01:32:06;5.83;;;2.40;;
43552;SDS011;29153;42.696;23.218;2024-01-25T01:34:34;5.45;;;1.98;;
43552;SDS011;29153;42.696;23.218;2024-01-25T01:37:02;4.10;;;1.27;;
43552;SDS011;29153;42.696;23.218;2024-01-25T01:39:30;2.35;;;0.65;;
43552;SDS011;29153;42.696;23.218;2024-01-25T01:41:58;1.12;;;0.30;;
43552;SDS011;29153;42.696;23.218;2024-01-25T01:44:27;1.67;;;0.47;;
43552;SDS011;29153;42.696;23.218;2024-01-25T01:46:56;1.00;;;0.20;;
43552;SDS011;29153;42.696;23.218;2024-01-25T01:49:24;1.40;;;0.30;;
43552;SDS011;29153;42.696;23.218;2024-01-25T01:51:53;1.80;;;0.50;;
43552;SDS011;29153;42.696;23.218;2024-01-25T01:54:21;5.22;;;1.80;;
43552;SDS011;29153;42.696;23.218;2024-01-25T01:56:49;4.12;;;1.40;;
43552;SDS011;29153;42.696;23.218;2024-01-25T01:59:17;5.70;;;1.65;;
43552;SDS011;29153;42.696;23.218;2024-01-25T02:01:46;5.62;;;1.87;;
43552;SDS011;29153;42.696;23.218;2024-01-25T02:04:13;6.70;;;1.17;;
43552;SDS011;29153;42.696;23.218;2024-01-25T02:06:42;2.85;;;0.70;;
43552;SDS011;29153;42.696;23.218;2024-01-25T02:09:11;4.33;;;0.82;;
43552;SDS011;29153;42.696;23.218;2024-01-25T02:11:39;2.98;;;0.75;;
43552;SDS011;29153;42.696;23.218;2024-01-25T02:14:07;3.20;;;0.60;;
43552;SDS011;29153;42.696;23.218;2024-01-25T02:16:36;2.75;;;0.78;;
43552;SDS011;29153;42.696;23.218;2024-01-25T02:19:04;3.15;;;0.37;;
43552;SDS011;29153;42.696;23.218;2024-01-25T02:21:31;2.58;;;0.50;;
43552;SDS011;29153;42.696;23.218;2024-01-25T02:23:59;3.37;;;0.40;;
43552;SDS011;29153;42.696;23.218;2024-01-25T02:26:27;2.02;;;0.40;;
43552;SDS011;29153;42.696;23.218;2024-01-25T02:28:54;1.77;;;0.45;;
43552;SDS011;29153;42.696;23.218;2024-01-25T02:31:22;3.10;;;0.55;;
43552;SDS011;29153;42.696;23.218;2024-01-25T02:33:49;1.52;;;0.30;;
43552;SDS011;29153;42.696;23.218;2024-01-25T02:36:17;2.75;;;0.45;;
43552;SDS011;29153;42.696;23.218;2024-01-25T02:38:45;1.95;;;0.40;;
43552;SDS011;29153;42.696;23.218;2024-01-25T02:41:12;2.92;;;0.50;;
43552;SDS011;29153;42.696;23.218;2024-01-25T02:43:40;1.30;;;0.33;;
43552;SDS011;29153;42.696;23.218;2024-01-25T02:46:08;1.50;;;0.53;;
43552;SDS011;29153;42.696;23.218;2024-01-25T02:48:35;3.00;;;0.40;;
43552;SDS011;29153;42.696;23.218;2024-01-25T02:51:03;2.00;;;0.60;;
43552;SDS011;29153;42.696;23.218;2024-01-25T02:53:31;2.60;;;0.40;;
43552;SDS011;29153;42.696;23.218;2024-01-25T02:55:58;2.10;;;0.50;;
43552;SDS011;29153;42.696;23.218;2024-01-25T02:58:26;3.33;;;0.30;;
43552;SDS011;29153;42.696;23.218;2024-01-25T03:00:53;3.20;;;0.40;;
43552;SDS011;29153;42.696;23.218;2024-01-25T03:03:21;1.87;;;0.40;;
43552;SDS011;29153;42.696;23.218;2024-01-25T03:05:56;1.72;;;0.37;;
43552;SDS011;29153;42.696;23.218;2024-01-25T03:08:19;4.08;;;0.60;;
43552;SDS011;29153;42.696;23.218;2024-01-25T03:10:47;4.25;;;0.78;;
43552;SDS011;29153;42.696;23.218;2024-01-25T03:13:15;1.60;;;0.40;;
43552;SDS011;29153;42.696;23.218;2024-01-25T03:15:43;1.47;;;0.28;;
43552;SDS011;29153;42.696;23.218;2024-01-25T03:18:11;2.02;;;0.30;;
43552;SDS011;29153;42.696;23.218;2024-01-25T03:20:38;1.65;;;0.40;;
43552;SDS011;29153;42.696;23.218;2024-01-25T03:23:06;2.02;;;0.50;;
43552;SDS011;29153;42.696;23.218;2024-01-25T03:25:34;1.72;;;0.40;;
43552;SDS011;29153;42.696;23.218;2024-01-25T03:28:02;1.60;;;0.45;;
43552;SDS011;29153;42.696;23.218;2024-01-25T03:30:31;1.52;;;0.33;;
43552;SDS011;29153;42.696;23.218;2024-01-25T03:32:58;2.00;;;0.23;;
43552;SDS011;29153;42.696;23.218;2024-01-25T03:35:26;1.52;;;0.50;;
43552;SDS011;29153;42.696;23.218;2024-01-25T03:37:54;1.82;;;0.30;;
43552;SDS011;29153;42.696;23.218;2024-01-25T03:40:21;4.30;;;0.50;;
43552;SDS011;29153;42.696;23.218;2024-01-25T03:42:49;1.95;;;0.60;;
43552;SDS011;29153;42.696;23.218;2024-01-25T03:45:16;2.50;;;0.62;;
43552;SDS011;29153;42.696;23.218;2024-01-25T03:47:44;2.60;;;0.53;;
43552;SDS011;29153;42.696;23.218;2024-01-25T03:50:12;15.68;;;3.72;;
43552;SDS011;29153;42.696;23.218;2024-01-25T03:52:39;1.90;;;0.35;;
43552;SDS011;29153;42.696;23.218;2024-01-25T03:55:07;1.40;;;0.30;;
43552;SDS011;29153;42.696;23.218;2024-01-25T03:57:35;1.12;;;0.45;;
43552;SDS011;29153;42.696;23.218;2024-01-25T04:00:04;3.15;;;0.47;;
43552;SDS011;29153;42.696;23.218;2024-01-25T04:02:32;2.42;;;0.50;;
43552;SDS011;29153;42.696;23.218;2024-01-25T04:05:00;2.45;;;0.45;;
43552;SDS011;29153;42.696;23.218;2024-01-25T04:07:28;2.72;;;0.42;;
43552;SDS011;29153;42.696;23.218;2024-01-25T04:09:55;3.15;;;0.53;;
43552;SDS011;29153;42.696;23.218;2024-01-25T04:12:23;3.08;;;0.45;;
43552;SDS011;29153;42.696;23.218;2024-01-25T04:14:50;2.45;;;0.72;;
43552;SDS011;29153;42.696;23.218;2024-01-25T04:17:18;2.25;;;0.72;;
43552;SDS011;29153;42.696;23.218;2024-01-25T04:19:46;2.90;;;0.80;;
43552;SDS011;29153;42.696;23.218;2024-01-25T04:22:13;4.17;;;0.80;;
43552;SDS011;29153;42.696;23.218;2024-01-25T04:24:41;4.10;;;0.60;;
43552;SDS011;29153;42.696;23.218;2024-01-25T04:27:10;6.80;;;0.95;;
43552;SDS011;29153;42.696;23.218;2024-01-25T04:29:38;3.33;;;1.22;;
43552;SDS011;29153;42.696;23.218;2024-01-25T04:32:08;4.53;;;0.78;;
43552;SDS011;29153;42.696;23.218;2024-01-25T04:34:36;3.58;;;1.25;;
43552;SDS011;29153;42.696;23.218;2024-01-25T04:37:03;3.30;;;0.85;;
43552;SDS011;29153;42.696;23.218;2024-01-25T04:39:31;4.08;;;1.15;;
43552;SDS011;29153;42.696;23.218;2024-01-25T04:41:58;2.17;;;0.65;;
43552;SDS011;29153;42.696;23.218;2024-01-25T04:44:26;2.95;;;0.82;;
43552;SDS011;29153;42.696;23.218;2024-01-25T04:46:54;3.42;;;0.95;;
43552;SDS011;29153;42.696;23.218;2024-01-25T04:49:22;4.58;;;0.85;;
43552;SDS011;29153;42.696;23.218;2024-01-25T04:51:50;5.53;;;0.82;;
43552;SDS011;29153;42.696;23.218;2024-01-25T04:54:17;3.52;;;1.37;;
43552;SDS011;29153;42.696;23.218;2024-01-25T04:56:45;5.08;;;2.33;;
43552;SDS011;29153;42.696;23.218;2024-01-25T04:59:13;4.22;;;1.62;;
43552;SDS011;29153;42.696;23.218;2024-01-25T05:01:40;5.20;;;1.95;;
43552;SDS011;29153;42.696;23.218;2024-01-25T05:04:08;4.80;;;1.92;;
43552;SDS011;29153;42.696;23.218;2024-01-25T05:06:35;4.95;;;1.92;;
43552;SDS011;29153;42.696;23.218;2024-01-25T05:09:03;4.62;;;1.67;;
43552;SDS011;29153;42.696;23.218;2024-01-25T05:11:32;4.12;;;0.90;;
43552;SDS011;29153;42.696;23.218;2024-01-25T05:14:00;2.55;;;0.93;;
43552;SDS011;29153;42.696;23.218;2024-01-25T05:16:28;2.83;;;0.93;;
43552;SDS011;29153;42.696;23.218;2024-01-25T05:18:55;3.33;;;1.07;;
43552;SDS011;29153;42.696;23.218;2024-01-25T05:21:23;4.20;;;0.95;;
43552;SDS011;29153;42.696;23.218;2024-01-25T05:23:50;2.45;;;0.60;;
43552;SDS011;29153;42.696;23.218;2024-01-25T05:26:18;4.67;;;0.90;;
43552;SDS011;29153;42.696;23.218;2024-01-25T05:28:46;2.20;;;0.55;;
43552;SDS011;29153;42.696;23.218;2024-01-25T05:31:14;4.75;;;0.85;;
43552;SDS011;29153;42.696;23.218;2024-01-25T05:33:42;4.87;;;0.93;;
43552;SDS011;29153;42.696;23.218;2024-01-25T05:36:09;4.10;;;1.05;;
43552;SDS011;29153;42.696;23.218;2024-01-25T05:38:38;5.25;;;1.57;;
43552;SDS011;29153;42.696;23.218;2024-01-25T05:41:06;6.00;;;1.95;;
43552;SDS011;29153;42.696;23.218;2024-01-25T05:43:34;12.82;;;3.00;;
43552;SDS011;29153;42.696;23.218;2024-01-25T05:46:01;6.45;;;1.70;;
43552;SDS011;29153;42.696;23.218;2024-01-25T05:48:29;3.40;;;1.07;;
43552;SDS011;29153;42.696;23.218;2024-01-25T05:50:57;11.22;;;4.10;;
43552;SDS011;29153;42.696;23.218;2024-01-25T05:53:26;9.10;;;2.67;;
43552;SDS011;29153;42.696;23.218;2024-01-25T05:55:54;6.67;;;2.22;;
43552;SDS011;29153;42.696;23.218;2024-01-25T05:58:21;5.65;;;1.55;;
43552;SDS011;29153;42.696;23.218;2024-01-25T06:00:49;8.53;;;1.40;;
43552;SDS011;29153;42.696;23.218;2024-01-25T06:03:16;4.65;;;1.25;;
43552;SDS011;29153;42.696;23.218;2024-01-25T06:05:44;3.72;;;1.00;;
43552;SDS011;29153;42.696;23.218;2024-01-25T06:08:12;5.25;;;1.80;;
43552;SDS011;29153;42.696;23.218;2024-01-25T06:10:39;8.08;;;2.60;;
43552;SDS011;29153;42.696;23.218;2024-01-25T06:13:07;7.60;;;2.77;;
43552;SDS011;29153;42.696;23.218;2024-01-25T06:15:34;10.60;;;3.05;;
43552;SDS011;29153;42.696;23.218;2024-01-25T06:18:02;8.50;;;2.62;;
43552;SDS011;29153;42.696;23.218;2024-01-25T06:20:30;7.92;;;2.72;;
43552;SDS011;29153;42.696;23.218;2024-01-25T06:22:58;8.68;;;2.92;;
43552;SDS011;29153;42.696;23.218;2024-01-25T06:25:25;12.35;;;5.12;;
43552;SDS011;29153;42.696;23.218;2024-01-25T06:27:55;9.03;;;3.65;;
43552;SDS011;29153;42.696;23.218;2024-01-25T06:30:26;8.65;;;3.85;;
43552;SDS011;29153;42.696;23.218;2024-01-25T06:32:53;8.50;;;3.47;;
43552;SDS011;29153;42.696;23.218;2024-01-25T06:35:20;6.70;;;2.05;;
43552;SDS011;29153;42.696;23.218;2024-01-25T06:37:48;4.65;;;1.40;;
43552;SDS011;29153;42.696;23.218;2024-01-25T06:40:16;4.42;;;1.30;;
43552;SDS011;29153;42.696;23.218;2024-01-25T06:42:44;4.17;;;1.17;;
43552;SDS011;29153;42.696;23.218;2024-01-25T06:45:11;6.35;;;1.17;;
43552;SDS011;29153;42.696;23.218;2024-01-25T06:47:39;3.95;;;1.10;;
43552;SDS011;29153;42.696;23.218;2024-01-25T06:50:07;5.12;;;1.87;;
43552;SDS011;29153;42.696;23.218;2024-01-25T06:55:02;4.05;;;1.37;;
43552;SDS011;29153;42.696;23.218;2024-01-25T06:57:30;4.67;;;1.65;;
43552;SDS011;29153;42.696;23.218;2024-01-25T06:59:57;4.70;;;2.02;;
43552;SDS011;29153;42.696;23.218;2024-01-25T07:02:25;4.72;;;1.92;;
43552;SDS011;29153;42.696;23.218;2024-01-25T07:04:52;6.95;;;2.85;;
43552;SDS011;29153;42.696;23.218;2024-01-25T07:07:21;5.83;;;1.92;;
43552;SDS011;29153;42.696;23.218;2024-01-25T07:09:48;13.78;;;5.78;;
43552;SDS011;29153;42.696;23.218;2024-01-25T07:12:16;15.05;;;5.65;;
43552;SDS011;29153;42.696;23.218;2024-01-25T07:14:44;8.33;;;3.40;;
43552;SDS011;29153;42.696;23.218;2024-01-25T07:17:11;5.47;;;1.42;;
43552;SDS011;29153;42.696;23.218;2024-01-25T07:19:39;7.53;;;1.80;;
43552;SDS011;29153;42.696;23.218;2024-01-25T07:22:07;8.50;;;2.25;;
43552;SDS011;29153;42.696;23.218;2024-01-25T07:24:34;7.72;;;1.80;;
43552;SDS011;29153;42.696;23.218;2024-01-25T07:27:02;8.58;;;1.52;;
43552;SDS011;29153;42.696;23.218;2024-01-25T07:29:30;6.72;;;1.65;;
43552;SDS011;29153;42.696;23.218;2024-01-25T07:31:57;3.80;;;1.05;;
43552;SDS011;29153;42.696;23.218;2024-01-25T07:34:25;4.15;;;1.05;;
43552;SDS011;29153;42.696;23.218;2024-01-25T07:36:52;4.83;;;1.40;;
43552;SDS011;29153;42.696;23.218;2024-01-25T07:39:20;4.58;;;1.20;;
43552;SDS011;29153;42.696;23.218;2024-01-25T07:41:48;8.13;;;1.95;;
43552;SDS011;29153;42.696;23.218;2024-01-25T07:44:15;10.35;;;3.30;;
43552;SDS011;29153;42.696;23.218;2024-01-25T07:46:45;9.40;;;3.15;;
43552;SDS011;29153;42.696;23.218;2024-01-25T07:49:12;7.75;;;2.85;;
43552;SDS011;29153;42.696;23.218;2024-01-25T07:51:40;5.55;;;1.52;;
43552;SDS011;29153;42.696;23.218;2024-01-25T07:54:08;10.05;;;3.12;;
43552;SDS011;29153;42.696;23.218;2024-01-25T07:56:35;5.20;;;1.30;;
43552;SDS011;29153;42.696;23.218;2024-01-25T07:59:03;4.45;;;1.12;;
43552;SDS011;29153;42.696;23.218;2024-01-25T08:01:31;5.50;;;2.12;;
43552;SDS011;29153;42.696;23.218;2024-01-25T08:03:58;3.98;;;1.10;;
43552;SDS011;29153;42.696;23.218;2024-01-25T08:06:26;9.55;;;4.20;;
43552;SDS011;29153;42.696;23.218;2024-01-25T08:08:54;6.70;;;2.40;;
43552;SDS011;29153;42.696;23.218;2024-01-25T08:11:21;5.50;;;1.15;;
43552;SDS011;29153;42.696;23.218;2024-01-25T08:13:49;7.33;;;2.25;;
43552;SDS011;29153;42.696;23.218;2024-01-25T08:16:16;5.22;;;1.57;;
43552;SDS011;29153;42.696;23.218;2024-01-25T08:18:48;5.37;;;1.42;;
43552;SDS011;29153;42.696;23.218;2024-01-25T08:21:16;4.92;;;1.30;;
43552;SDS011;29153;42.696;23.218;2024-01-25T08:23:44;6.35;;;2.22;;
43552;SDS011;29153;42.696;23.218;2024-01-25T08:26:11;7.92;;;1.15;;
43552;SDS011;29153;42.696;23.218;2024-01-25T08:28:39;4.33;;;1.27;;
43552;SDS011;29153;42.696;23.218;2024-01-25T08:31:09;6.62;;;2.37;;
43552;SDS011;29153;42.696;23.218;2024-01-25T08:33:38;10.48;;;3.12;;
43552;SDS011;29153;42.696;23.218;2024-01-25T08:36:13;8.78;;;3.58;;
43552;SDS011;29153;42.696;23.218;2024-01-25T08:38:42;7.42;;;3.50;;
43552;SDS011;29153;42.696;23.218;2024-01-25T08:41:10;9.10;;;1.82;;
43552;SDS011;29153;42.696;23.218;2024-01-25T08:43:39;4.83;;;1.17;;
43552;SDS011;29153;42.696;23.218;2024-01-25T08:46:07;5.40;;;1.37;;
43552;SDS011;29153;42.696;23.218;2024-01-25T08:48:35;4.12;;;1.35;;
43552;SDS011;29153;42.696;23.218;2024-01-25T08:51:03;6.35;;;1.50;;
43552;SDS011;29153;42.696;23.218;2024-01-25T08:53:30;6.45;;;1.42;;
43552;SDS011;29153;42.696;23.218;2024-01-25T08:55:58;7.05;;;1.37;;
43552;SDS011;29153;42.696;23.218;2024-01-25T08:58:26;5.03;;;1.40;;
43552;SDS011;29153;42.696;23.218;2024-01-25T09:00:54;6.92;;;1.12;;
43552;SDS011;29153;42.696;23.218;2024-01-25T09:03:22;4.17;;;1.37;;
43552;SDS011;29153;42.696;23.218;2024-01-25T09:05:49;8.85;;;2.35;;
43552;SDS011;29153;42.696;23.218;2024-01-25T09:08:17;8.40;;;1.80;;
43552;SDS011;29153;42.696;23.218;2024-01-25T09:10:44;10.82;;;3.50;;
43552;SDS011;29153;42.696;23.218;2024-01-25T09:13:12;20.27;;;7.40;;
43552;SDS011;29153;42.696;23.218;2024-01-25T09:15:40;14.95;;;5.10;;
43552;SDS011;29153;42.696;23.218;2024-01-25T09:18:09;24.15;;;7.70;;
43552;SDS011;29153;42.696;23.218;2024-01-25T09:20:36;15.28;;;4.90;;
43552;SDS011;29153;42.696;23.218;2024-01-25T09:23:04;9.40;;;3.35;;
43552;SDS011;29153;42.696;23.218;2024-01-25T09:25:31;8.48;;;2.35;;
43552;SDS011;29153;42.696;23.218;2024-01-25T09:27:59;8.28;;;2.10;;
43552;SDS011;29153;42.696;23.218;2024-01-25T09:30:27;12.88;;;4.47;;
43552;SDS011;29153;42.696;23.218;2024-01-25T09:32:55;19.65;;;5.70;;
43552;SDS011;29153;42.696;23.218;2024-01-25T09:35:22;9.60;;;3.55;;
43552;SDS011;29153;42.696;23.218;2024-01-25T09:37:50;7.97;;;2.17;;
43552;SDS011;29153;42.696;23.218;2024-01-25T09:40:18;9.23;;;4.25;;
43552;SDS011;29153;42.696;23.218;2024-01-25T09:42:49;7.25;;;1.80;;
43552;SDS011;29153;42.696;23.218;2024-01-25T09:45:19;7.10;;;2.12;;
43552;SDS011;29153;42.696;23.218;2024-01-25T09:47:47;6.42;;;2.02;;
43552;SDS011;29153;42.696;23.218;2024-01-25T09:50:15;6.62;;;2.37;;
43552;SDS011;29153;42.696;23.218;2024-01-25T09:52:43;10.53;;;3.02;;
43552;SDS011;29153;42.696;23.218;2024-01-25T09:55:12;7.62;;;2.15;;
43552;SDS011;29153;42.696;23.218;2024-01-25T09:57:44;7.60;;;2.20;;
43552;SDS011;29153;42.696;23.218;2024-01-25T10:00:12;14.00;;;3.85;;
43552;SDS011;29153;42.696;23.218;2024-01-25T10:02:41;15.23;;;3.50;;
43552;SDS011;29153;42.696;23.218;2024-01-25T10:05:08;10.60;;;3.27;;
43552;SDS011;29153;42.696;23.218;2024-01-25T10:07:39;4.45;;;1.57;;
43552;SDS011;29153;42.696;23.218;2024-01-25T10:10:08;7.28;;;2.22;;
43552;SDS011;29153;42.696;23.218;2024-01-25T10:12:37;6.45;;;1.92;;
43552;SDS011;29153;42.696;23.218;2024-01-25T10:15:07;6.80;;;1.60;;
43552;SDS011;29153;42.696;23.218;2024-01-25T10:17:34;7.47;;;1.85;;
43552;SDS011;29153;42.696;23.218;2024-01-25T10:20:04;8.40;;;1.77;;
43552;SDS011;29153;42.696;23.218;2024-01-25T10:22:33;7.90;;;2.65;;
43552;SDS011;29153;42.696;23.218;2024-01-25T10:25:02;8.20;;;2.00;;
43552;SDS011;29153;42.696;23.218;2024-01-25T10:27:30;6.95;;;1.62;;
43552;SDS011;29153;42.696;23.218;2024-01-25T10:29:57;8.40;;;2.75;;
43552;SDS011;29153;42.696;23.218;2024-01-25T10:32:26;5.92;;;1.92;;
43552;SDS011;29153;42.696;23.218;2024-01-25T10:34:53;7.87;;;1.80;;
43552;SDS011;29153;42.696;23.218;2024-01-25T10:37:22;7.85;;;1.72;;
43552;SDS011;29153;42.696;23.218;2024-01-25T10:39:49;5.45;;;1.57;;
43552;SDS011;29153;42.696;23.218;2024-01-25T10:42:19;7.95;;;1.90;;
43552;SDS011;29153;42.696;23.218;2024-01-25T10:44:46;7.20;;;2.20;;
43552;SDS011;29153;42.696;23.218;2024-01-25T10:47:14;6.15;;;1.85;;
43552;SDS011;29153;42.696;23.218;2024-01-25T10:49:42;5.20;;;1.92;;
43552;SDS011;29153;42.696;23.218;2024-01-25T10:52:12;6.25;;;1.37;;
43552;SDS011;29153;42.696;23.218;2024-01-25T10:54:41;7.40;;;1.57;;
43552;SDS011;29153;42.696;23.218;2024-01-25T10:57:09;8.13;;;1.75;;
43552;SDS011;29153;42.696;23.218;2024-01-25T10:59:37;5.05;;;1.02;;
43552;SDS011;29153;42.696;23.218;2024-01-25T11:02:05;5.60;;;1.65;;
43552;SDS011;29153;42.696;23.218;2024-01-25T11:04:34;8.30;;;2.35;;
43552;SDS011;29153;42.696;23.218;2024-01-25T11:07:08;6.45;;;1.70;;
43552;SDS011;29153;42.696;23.218;2024-01-25T11:12:23;17.17;;;7.37;;
43552;SDS011;29153;42.696;23.218;2024-01-25T11:14:42;25.12;;;8.23;;
43552;SDS011;29153;42.696;23.218;2024-01-25T11:17:19;70.03;;;28.67;;
43552;SDS011;29153;42.696;23.218;2024-01-25T11:19:49;36.03;;;17.65;;
43552;SDS011;29153;42.696;23.218;2024-01-25T11:22:17;204.65;;;86.70;;
43552;SDS011;29153;42.696;23.218;2024-01-25T11:24:45;153.82;;;71.75;;
43552;SDS011;29153;42.696;23.218;2024-01-25T11:27:14;21.52;;;12.93;;
43552;SDS011;29153;42.696;23.218;2024-01-25T11:29:42;17.77;;;7.85;;
43552;SDS011;29153;42.696;23.218;2024-01-25T11:32:09;12.30;;;5.58;;
43552;SDS011;29153;42.696;23.218;2024-01-25T11:34:38;33.05;;;19.77;;
43552;SDS011;29153;42.696;23.218;2024-01-25T11:37:06;57.05;;;28.95;;
43552;SDS011;29153;42.696;23.218;2024-01-25T11:39:34;39.50;;;19.95;;
43552;SDS011;29153;42.696;23.218;2024-01-25T11:42:01;23.38;;;8.50;;
43552;SDS011;29153;42.696;23.218;2024-01-25T11:44:29;12.73;;;5.75;;
43552;SDS011;29153;42.696;23.218;2024-01-25T11:46:57;21.30;;;10.03;;
43552;SDS011;29153;42.696;23.218;2024-01-25T11:49:25;57.65;;;22.25;;
43552;SDS011;29153;42.696;23.218;2024-01-25T11:51:52;41.40;;;16.55;;
43552;SDS011;29153;42.696;23.218;2024-01-25T11:54:20;72.53;;;32.15;;
43552;SDS011;29153;42.696;23.218;2024-01-25T11:56:47;53.78;;;21.15;;
43552;SDS011;29153;42.696;23.218;2024-01-25T11:59:15;15.03;;;5.42;;
43552;SDS011;29153;42.696;23.218;2024-01-25T12:01:43;34.55;;;17.27;;
43552;SDS011;29153;42.696;23.218;2024-01-25T12:04:11;29.50;;;11.57;;
43552;SDS011;29153;42.696;23.218;2024-01-25T12:06:39;15.25;;;5.00;;
43552;SDS011;29153;42.696;23.218;2024-01-25T12:09:07;38.65;;;14.43;;
43552;SDS011;29153;42.696;23.218;2024-01-25T12:11:43;147.65;;;40.85;;
43552;SDS011;29153;42.696;23.218;2024-01-25T12:14:08;92.97;;;30.77;;
43552;SDS011;29153;42.696;23.218;2024-01-25T12:16:38;70.62;;;20.90;;
43552;SDS011;29153;42.696;23.218;2024-01-25T12:19:06;111.75;;;33.67;;
43552;SDS011;29153;42.696;23.218;2024-01-25T12:21:34;48.65;;;15.03;;
43552;SDS011;29153;42.696;23.218;2024-01-25T12:24:02;41.10;;;12.80;;
43552;SDS011;29153;42.696;23.218;2024-01-25T12:26:33;17.25;;;5.95;;
43552;SDS011;29153;42.696;23.218;2024-01-25T12:29:02;26.62;;;12.40;;
43552;SDS011;29153;42.696;23.218;2024-01-25T12:31:30;17.98;;;7.78;;
43552;SDS011;29153;42.696;23.218;2024-01-25T12:33:58;8.55;;;3.02;;
43552;SDS011;29153;42.696;23.218;2024-01-25T12:36:26;20.10;;;7.42;;
43552;SDS011;29153;42.696;23.218;2024-01-25T12:38:54;6.42;;;1.70;;
43552;SDS011;29153;42.696;23.218;2024-01-25T12:41:22;7.50;;;1.90;;
43552;SDS011;29153;42.696;23.218;2024-01-25T12:43:49;7.40;;;3.42;;
43552;SDS011;29153;42.696;23.218;2024-01-25T12:46:17;7.15;;;2.00;;
43552;SDS011;29153;42.696;23.218;2024-01-25T12:48:44;6.67;;;2.37;;
43552;SDS011;29153;42.696;23.218;2024-01-25T12:51:12;12.13;;;3.40;;
43552;SDS011;29153;42.696;23.218;2024-01-25T12:53:40;11.48;;;5.00;;
43552;SDS011;29153;42.696;23.218;2024-01-25T12:56:07;8.33;;;3.35;;
43552;SDS011;29153;42.696;23.218;2024-01-25T12:58:35;12.25;;;3.67;;
43552;SDS011;29153;42.696;23.218;2024-01-25T13:01:03;9.50;;;2.33;;
43552;SDS011;29153;42.696;23.218;2024-01-25T13:03:30;9.18;;;3.00;;
43552;SDS011;29153;42.696;23.218;2024-01-25T13:05:58;8.50;;;1.82;;
43552;SDS011;29153;42.696;23.218;2024-01-25T13:08:27;5.72;;;1.55;;
43552;SDS011;29153;42.696;23.218;2024-01-25T13:10:55;15.80;;;5.37;;
43552;SDS011;29153;42.696;23.218;2024-01-25T13:13:23;8.35;;;2.10;;
43552;SDS011;29153;42.696;23.218;2024-01-25T13:15:51;7.85;;;1.70;;
43552;SDS011;29153;42.696;23.218;2024-01-25T13:18:18;10.53;;;2.58;;
43552;SDS011;29153;42.696;23.218;2024-01-25T13:20:46;11.53;;;3.33;;
43552;SDS011;29153;42.696;23.218;2024-01-25T13:23:14;10.13;;;3.17;;
43552;SDS011;29153;42.696;23.218;2024-01-25T13:25:41;9.03;;;1.95;;
43552;SDS011;29153;42.696;23.218;2024-01-25T13:28:09;8.88;;;1.65;;
43552;SDS011;29153;42.696;23.218;2024-01-25T13:30:36;6.75;;;1.85;;
43552;SDS011;29153;42.696;23.218;2024-01-25T13:33:04;8.95;;;2.45;;
43552;SDS011;29153;42.696;23.218;2024-01-25T13:35:32;6.53;;;1.37;;
43552;SDS011;29153;42.696;23.218;2024-01-25T13:37:59;11.78;;;2.33;;
43552;SDS011;29153;42.696;23.218;2024-01-25T13:40:27;7.03;;;1.60;;
43552;SDS011;29153;42.696;23.218;2024-01-25T13:42:55;5.53;;;1.55;;
43552;SDS011;29153;42.696;23.218;2024-01-25T13:45:22;8.48;;;2.90;;
43552;SDS011;29153;42.696;23.218;2024-01-25T13:47:50;12.18;;;1.50;;
43552;SDS011;29153;42.696;23.218;2024-01-25T13:50:17;88.75;;;20.17;;
43552;SDS011;29153;42.696;23.218;2024-01-25T13:52:45;48.30;;;13.20;;
43552;SDS011;29153;42.696;23.218;2024-01-25T13:55:13;16.80;;;3.65;;
43552;SDS011;29153;42.696;23.218;2024-01-25T13:57:40;29.25;;;8.05;;
43552;SDS011;29153;42.696;23.218;2024-01-25T14:00:08;21.80;;;5.90;;
43552;SDS011;29153;42.696;23.218;2024-01-25T14:02:36;39.38;;;14.28;;
43552;SDS011;29153;42.696;23.218;2024-01-25T14:05:05;10.58;;;3.27;;
43552;SDS011;29153;42.696;23.218;2024-01-25T14:07:33;10.72;;;3.75;;
43552;SDS011;29153;42.696;23.218;2024-01-25T14:10:01;15.78;;;4.78;;
43552;SDS011;29153;42.696;23.218;2024-01-25T14:12:28;9.53;;;3.05;;
43552;SDS011;29153;42.696;23.218;2024-01-25T14:14:56;13.60;;;4.53;;
43552;SDS011;29153;42.696;23.218;2024-01-25T14:20:22;9.95;;;2.37;;
43552;SDS011;29153;42.696;23.218;2024-01-25T14:22:49;10.98;;;3.62;;
43552;SDS011;29153;42.696;23.218;2024-01-25T14:25:17;11.43;;;2.72;;
43552;SDS011;29153;42.696;23.218;2024-01-25T14:27:44;7.42;;;1.90;;
43552;SDS011;29153;42.696;23.218;2024-01-25T14:30:13;57.78;;;14.03;;
43552;SDS011;29153;42.696;23.218;2024-01-25T14:32:41;61.65;;;21.52;;
43552;SDS011;29153;42.696;23.218;2024-01-25T14:35:09;10.32;;;3.98;;
43552;SDS011;29153;42.696;23.218;2024-01-25T14:37:36;27.98;;;7.25;;
43552;SDS011;29153;42.696;23.218;2024-01-25T14:40:04;56.50;;;17.37;;